sensor_id;sensor_type;location;lat;lon;timestamp;temperature;humidity
24384;DHT22;12504;52.870;8.798;2024-02-16T00:00:45;10.00;99.90
24384;DHT22;12504;52.870;8.798;2024-02-16T00:03:12;10.10;99.90
24384;DHT22;12504;52.870;8.798;2024-02-16T00:05:38;10.00;99.90
24384;DHT22;12504;52.870;8.798;2024-02-16T00:08:04;9.90;99.90
24384;DHT22;12504;52.870;8.798;2024-02-16T00:10:30;9.90;99.90
24384;DHT22;12504;52.870;8.798;2024-02-16T00:12:56;9.70;99.90
24384;DHT22;12504;52.870;8.798;2024-02-16T00:15:22;9.60;99.90
24384;DHT22;12504;52.870;8.798;2024-02-16T00:17:49;9.60;99.90
24384;DHT22;12504;52.870;8.798;2024-02-16T00:20:14;9.70;99.90
24384;DHT22;12504;52.870;8.798;2024-02-16T00:22:40;9.60;99.90
24384;DHT22;12504;52.870;8.798;2024-02-16T00:25:06;9.60;99.90
24384;DHT22;12504;52.870;8.798;2024-02-16T00:27:32;9.60;99.90
24384;DHT22;12504;52.870;8.798;2024-02-16T00:29:58;9.60;99.90
24384;DHT22;12504;52.870;8.798;2024-02-16T00:32:23;9.60;99.90
24384;DHT22;12504;52.870;8.798;2024-02-16T00:34:56;9.50;99.90
24384;DHT22;12504;52.870;8.798;2024-02-16T00:37:24;9.50;99.90
24384;DHT22;12504;52.870;8.798;2024-02-16T00:39:50;9.50;99.90
24384;DHT22;12504;52.870;8.798;2024-02-16T00:42:15;9.50;99.90
24384;DHT22;12504;52.870;8.798;2024-02-16T00:44:41;9.30;99.90
24384;DHT22;12504;52.870;8.798;2024-02-16T00:47:07;9.20;99.90
24384;DHT22;12504;52.870;8.798;2024-02-16T00:49:35;9.20;99.90
24384;DHT22;12504;52.870;8.798;2024-02-16T00:52:00;9.30;99.90
24384;DHT22;12504;52.870;8.798;2024-02-16T00:54:27;9.40;99.90
24384;DHT22;12504;52.870;8.798;2024-02-16T00:56:53;9.60;99.90
24384;DHT22;12504;52.870;8.798;2024-02-16T00:59:20;9.60;99.90
24384;DHT22;12504;52.870;8.798;2024-02-16T01:01:46;9.70;99.90
24384;DHT22;12504;52.870;8.798;2024-02-16T01:04:12;9.80;99.90
24384;DHT22;12504;52.870;8.798;2024-02-16T01:06:38;9.80;99.90
24384;DHT22;12504;52.870;8.798;2024-02-16T01:09:03;9.80;99.90
24384;DHT22;12504;52.870;8.798;2024-02-16T01:11:29;9.90;99.90
24384;DHT22;12504;52.870;8.798;2024-02-16T01:13:55;9.90;99.90
24384;DHT22;12504;52.870;8.798;2024-02-16T01:16:21;9.80;99.90
24384;DHT22;12504;52.870;8.798;2024-02-16T01:18:46;9.60;99.90
24384;DHT22;12504;52.870;8.798;2024-02-16T01:21:12;9.60;99.90
24384;DHT22;12504;52.870;8.798;2024-02-16T01:23:38;9.60;99.90
24384;DHT22;12504;52.870;8.798;2024-02-16T01:26:03;9.80;99.90
24384;DHT22;12504;52.870;8.798;2024-02-16T01:28:29;9.80;99.90
24384;DHT22;12504;52.870;8.798;2024-02-16T01:30:55;9.90;99.90
24384;DHT22;12504;52.870;8.798;2024-02-16T01:33:22;10.00;99.90
24384;DHT22;12504;52.870;8.798;2024-02-16T01:35:47;9.90;99.90
24384;DHT22;12504;52.870;8.798;2024-02-16T01:38:13;9.90;99.90
24384;DHT22;12504;52.870;8.798;2024-02-16T01:40:39;9.90;99.90
24384;DHT22;12504;52.870;8.798;2024-02-16T01:43:05;9.90;99.90
24384;DHT22;12504;52.870;8.798;2024-02-16T01:45:30;9.90;99.90
24384;DHT22;12504;52.870;8.798;2024-02-16T01:47:56;9.90;99.90
24384;DHT22;12504;52.870;8.798;2024-02-16T01:50:23;9.70;99.90
24384;DHT22;12504;52.870;8.798;2024-02-16T01:52:49;9.60;99.90
24384;DHT22;12504;52.870;8.798;2024-02-16T01:55:15;9.50;99.90
24384;DHT22;12504;52.870;8.798;2024-02-16T01:57:47;9.70;99.90
24384;DHT22;12504;52.870;8.798;2024-02-16T02:00:13;9.80;99.90
24384;DHT22;12504;52.870;8.798;2024-02-16T02:02:46;9.80;99.90
24384;DHT22;12504;52.870;8.798;2024-02-16T02:05:13;9.90;99.90
24384;DHT22;12504;52.870;8.798;2024-02-16T02:07:38;9.90;99.90
24384;DHT22;12504;52.870;8.798;2024-02-16T02:10:04;9.90;99.90
24384;DHT22;12504;52.870;8.798;2024-02-16T02:12:30;10.00;99.90
24384;DHT22;12504;52.870;8.798;2024-02-16T02:14:56;10.00;99.90
24384;DHT22;12504;52.870;8.798;2024-02-16T02:17:21;10.00;99.90
24384;DHT22;12504;52.870;8.798;2024-02-16T02:19:48;10.00;99.90
24384;DHT22;12504;52.870;8.798;2024-02-16T02:22:16;10.00;99.90
24384;DHT22;12504;52.870;8.798;2024-02-16T02:24:43;10.00;99.90
24384;DHT22;12504;52.870;8.798;2024-02-16T02:27:10;10.00;99.90
24384;DHT22;12504;52.870;8.798;2024-02-16T02:29:35;9.90;99.90
24384;DHT22;12504;52.870;8.798;2024-02-16T02:32:01;9.80;99.90
24384;DHT22;12504;52.870;8.798;2024-02-16T02:34:27;9.70;99.90
24384;DHT22;12504;52.870;8.798;2024-02-16T02:36:52;9.80;99.90
24384;DHT22;12504;52.870;8.798;2024-02-16T02:39:18;9.80;99.90
24384;DHT22;12504;52.870;8.798;2024-02-16T02:41:44;9.90;99.90
24384;DHT22;12504;52.870;8.798;2024-02-16T02:44:10;10.00;99.90
24384;DHT22;12504;52.870;8.798;2024-02-16T02:46:36;10.00;99.90
24384;DHT22;12504;52.870;8.798;2024-02-16T02:49:02;10.10;99.90
24384;DHT22;12504;52.870;8.798;2024-02-16T02:51:29;10.10;99.90
24384;DHT22;12504;52.870;8.798;2024-02-16T02:53:55;10.10;99.90
24384;DHT22;12504;52.870;8.798;2024-02-16T02:56:20;10.10;99.90
24384;DHT22;12504;52.870;8.798;2024-02-16T02:58:46;10.10;99.90
24384;DHT22;12504;52.870;8.798;2024-02-16T03:01:13;10.00;99.90
24384;DHT22;12504;52.870;8.798;2024-02-16T03:03:41;9.90;99.90
24384;DHT22;12504;52.870;8.798;2024-02-16T03:06:08;9.80;99.90
24384;DHT22;12504;52.870;8.798;2024-02-16T03:08:35;9.70;99.90
24384;DHT22;12504;52.870;8.798;2024-02-16T03:11:01;9.80;99.90
24384;DHT22;12504;52.870;8.798;2024-02-16T03:13:27;9.90;99.90
24384;DHT22;12504;52.870;8.798;2024-02-16T03:15:53;9.90;99.90
24384;DHT22;12504;52.870;8.798;2024-02-16T03:18:19;9.90;99.90
24384;DHT22;12504;52.870;8.798;2024-02-16T03:20:45;10.00;99.90
24384;DHT22;12504;52.870;8.798;2024-02-16T03:23:14;10.00;99.90
24384;DHT22;12504;52.870;8.798;2024-02-16T03:25:39;10.00;99.90
24384;DHT22;12504;52.870;8.798;2024-02-16T03:28:07;10.00;99.90
24384;DHT22;12504;52.870;8.798;2024-02-16T03:30:33;9.90;99.90
24384;DHT22;12504;52.870;8.798;2024-02-16T03:32:59;10.00;99.90
24384;DHT22;12504;52.870;8.798;2024-02-16T03:35:25;9.90;99.90
24384;DHT22;12504;52.870;8.798;2024-02-16T03:37:51;9.70;99.90
24384;DHT22;12504;52.870;8.798;2024-02-16T03:40:16;9.60;99.90
24384;DHT22;12504;52.870;8.798;2024-02-16T03:42:43;9.50;99.90
24384;DHT22;12504;52.870;8.798;2024-02-16T03:45:09;9.50;99.90
24384;DHT22;12504;52.870;8.798;2024-02-16T03:47:35;9.60;99.90
24384;DHT22;12504;52.870;8.798;2024-02-16T03:50:01;9.70;99.90
24384;DHT22;12504;52.870;8.798;2024-02-16T03:52:27;9.70;99.90
24384;DHT22;12504;52.870;8.798;2024-02-16T03:54:53;9.70;99.90
24384;DHT22;12504;52.870;8.798;2024-02-16T03:57:18;9.80;99.90
24384;DHT22;12504;52.870;8.798;2024-02-16T03:59:44;9.80;99.90
24384;DHT22;12504;52.870;8.798;2024-02-16T04:02:10;9.80;99.90
24384;DHT22;12504;52.870;8.798;2024-02-16T04:04:36;9.80;99.90
24384;DHT22;12504;52.870;8.798;2024-02-16T04:07:03;9.80;99.90
24384;DHT22;12504;52.870;8.798;2024-02-16T04:09:29;9.70;99.90
24384;DHT22;12504;52.870;8.798;2024-02-16T04:11:56;9.70;99.90
24384;DHT22;12504;52.870;8.798;2024-02-16T04:14:21;9.50;99.90
24384;DHT22;12504;52.870;8.798;2024-02-16T04:16:47;9.40;99.90
24384;DHT22;12504;52.870;8.798;2024-02-16T04:19:12;9.30;99.90
24384;DHT22;12504;52.870;8.798;2024-02-16T04:21:38;9.30;99.90
24384;DHT22;12504;52.870;8.798;2024-02-16T04:24:04;9.30;99.90
24384;DHT22;12504;52.870;8.798;2024-02-16T04:26:30;9.30;99.90
24384;DHT22;12504;52.870;8.798;2024-02-16T04:28:55;9.30;99.90
24384;DHT22;12504;52.870;8.798;2024-02-16T04:31:21;9.40;99.90
24384;DHT22;12504;52.870;8.798;2024-02-16T04:33:47;9.40;99.90
24384;DHT22;12504;52.870;8.798;2024-02-16T04:36:12;9.40;99.90
24384;DHT22;12504;52.870;8.798;2024-02-16T04:38:38;9.50;99.90
24384;DHT22;12504;52.870;8.798;2024-02-16T04:41:07;9.50;99.90
24384;DHT22;12504;52.870;8.798;2024-02-16T04:43:33;9.50;99.90
24384;DHT22;12504;52.870;8.798;2024-02-16T04:45:59;9.50;99.90
24384;DHT22;12504;52.870;8.798;2024-02-16T04:48:25;9.50;99.90
24384;DHT22;12504;52.870;8.798;2024-02-16T04:50:51;9.50;99.90
24384;DHT22;12504;52.870;8.798;2024-02-16T04:53:17;9.30;99.90
24384;DHT22;12504;52.870;8.798;2024-02-16T04:55:42;9.30;99.90
24384;DHT22;12504;52.870;8.798;2024-02-16T04:58:08;9.20;99.90
24384;DHT22;12504;52.870;8.798;2024-02-16T05:00:37;9.30;99.90
24384;DHT22;12504;52.870;8.798;2024-02-16T05:03:03;9.30;99.90
24384;DHT22;12504;52.870;8.798;2024-02-16T05:05:29;9.30;99.90
24384;DHT22;12504;52.870;8.798;2024-02-16T05:07:56;9.30;99.90
24384;DHT22;12504;52.870;8.798;2024-02-16T05:10:22;9.30;99.90
24384;DHT22;12504;52.870;8.798;2024-02-16T05:12:48;9.20;99.90
24384;DHT22;12504;52.870;8.798;2024-02-16T05:15:14;9.20;99.90
24384;DHT22;12504;52.870;8.798;2024-02-16T05:17:41;9.20;99.90
24384;DHT22;12504;52.870;8.798;2024-02-16T05:20:11;9.30;99.90
24384;DHT22;12504;52.870;8.798;2024-02-16T05:22:44;9.30;99.90
24384;DHT22;12504;52.870;8.798;2024-02-16T05:25:12;9.30;99.90
24384;DHT22;12504;52.870;8.798;2024-02-16T05:27:37;9.40;99.90
24384;DHT22;12504;52.870;8.798;2024-02-16T05:30:04;9.50;99.90
24384;DHT22;12504;52.870;8.798;2024-02-16T05:32:34;9.60;99.90
24384;DHT22;12504;52.870;8.798;2024-02-16T05:35:00;9.70;99.90
24384;DHT22;12504;52.870;8.798;2024-02-16T05:37:30;9.80;99.90
24384;DHT22;12504;52.870;8.798;2024-02-16T05:39:57;9.80;99.90
24384;DHT22;12504;52.870;8.798;2024-02-16T05:42:34;10.00;99.90
24384;DHT22;12504;52.870;8.798;2024-02-16T05:45:00;10.10;99.90
24384;DHT22;12504;52.870;8.798;2024-02-16T05:47:25;10.20;99.90
24384;DHT22;12504;52.870;8.798;2024-02-16T05:49:51;10.30;99.90
24384;DHT22;12504;52.870;8.798;2024-02-16T05:52:17;10.40;99.90
24384;DHT22;12504;52.870;8.798;2024-02-16T05:54:43;10.40;99.90
24384;DHT22;12504;52.870;8.798;2024-02-16T05:57:09;10.40;99.90
24384;DHT22;12504;52.870;8.798;2024-02-16T05:59:35;10.50;99.90
24384;DHT22;12504;52.870;8.798;2024-02-16T06:02:01;10.60;99.90
24384;DHT22;12504;52.870;8.798;2024-02-16T06:04:26;10.60;99.90
24384;DHT22;12504;52.870;8.798;2024-02-16T06:06:52;10.60;99.90
24384;DHT22;12504;52.870;8.798;2024-02-16T06:09:19;10.60;99.90
24384;DHT22;12504;52.870;8.798;2024-02-16T06:11:45;10.70;99.90
24384;DHT22;12504;52.870;8.798;2024-02-16T06:14:10;10.70;99.90
24384;DHT22;12504;52.870;8.798;2024-02-16T06:16:36;10.70;99.90
24384;DHT22;12504;52.870;8.798;2024-02-16T06:19:02;10.60;99.90
24384;DHT22;12504;52.870;8.798;2024-02-16T06:21:27;10.70;99.90
24384;DHT22;12504;52.870;8.798;2024-02-16T06:23:53;10.70;99.90
24384;DHT22;12504;52.870;8.798;2024-02-16T06:26:18;10.80;99.90
24384;DHT22;12504;52.870;8.798;2024-02-16T06:28:45;10.90;99.90
24384;DHT22;12504;52.870;8.798;2024-02-16T06:31:12;11.00;99.90
24384;DHT22;12504;52.870;8.798;2024-02-16T06:33:39;11.00;99.90
24384;DHT22;12504;52.870;8.798;2024-02-16T06:36:05;11.10;99.90
24384;DHT22;12504;52.870;8.798;2024-02-16T06:38:32;11.10;99.90
24384;DHT22;12504;52.870;8.798;2024-02-16T06:40:58;11.10;99.90
24384;DHT22;12504;52.870;8.798;2024-02-16T06:43:23;11.20;99.90
24384;DHT22;12504;52.870;8.798;2024-02-16T06:45:49;11.20;99.90
24384;DHT22;12504;52.870;8.798;2024-02-16T06:48:15;11.10;99.90
24384;DHT22;12504;52.870;8.798;2024-02-16T06:50:40;11.20;99.90
24384;DHT22;12504;52.870;8.798;2024-02-16T06:53:06;11.20;99.90
24384;DHT22;12504;52.870;8.798;2024-02-16T06:55:31;11.30;99.90
24384;DHT22;12504;52.870;8.798;2024-02-16T06:57:57;11.30;99.90
24384;DHT22;12504;52.870;8.798;2024-02-16T07:00:22;11.30;99.90
24384;DHT22;12504;52.870;8.798;2024-02-16T07:02:48;11.40;99.90
24384;DHT22;12504;52.870;8.798;2024-02-16T07:05:14;11.30;99.90
24384;DHT22;12504;52.870;8.798;2024-02-16T07:07:41;11.30;99.90
24384;DHT22;12504;52.870;8.798;2024-02-16T07:10:07;11.30;99.90
24384;DHT22;12504;52.870;8.798;2024-02-16T07:12:33;11.30;99.90
24384;DHT22;12504;52.870;8.798;2024-02-16T07:14:59;11.30;99.90
24384;DHT22;12504;52.870;8.798;2024-02-16T07:17:24;11.20;99.90
24384;DHT22;12504;52.870;8.798;2024-02-16T07:19:50;11.20;99.90
24384;DHT22;12504;52.870;8.798;2024-02-16T07:22:16;11.20;99.90
24384;DHT22;12504;52.870;8.798;2024-02-16T07:24:41;11.30;99.90
24384;DHT22;12504;52.870;8.798;2024-02-16T07:27:07;11.30;99.90
24384;DHT22;12504;52.870;8.798;2024-02-16T07:29:33;11.40;99.90
24384;DHT22;12504;52.870;8.798;2024-02-16T07:32:00;11.40;99.90
24384;DHT22;12504;52.870;8.798;2024-02-16T07:34:25;11.50;99.90
24384;DHT22;12504;52.870;8.798;2024-02-16T07:36:51;11.60;99.90
24384;DHT22;12504;52.870;8.798;2024-02-16T07:39:17;11.60;99.90
24384;DHT22;12504;52.870;8.798;2024-02-16T07:41:43;11.70;99.90
24384;DHT22;12504;52.870;8.798;2024-02-16T07:44:08;11.70;99.90
24384;DHT22;12504;52.870;8.798;2024-02-16T07:46:40;11.70;99.90
24384;DHT22;12504;52.870;8.798;2024-02-16T07:49:05;11.80;99.90
24384;DHT22;12504;52.870;8.798;2024-02-16T07:51:31;11.70;99.90
24384;DHT22;12504;52.870;8.798;2024-02-16T07:53:57;11.80;99.90
24384;DHT22;12504;52.870;8.798;2024-02-16T07:56:22;11.90;99.90
24384;DHT22;12504;52.870;8.798;2024-02-16T07:58:48;11.90;99.90
24384;DHT22;12504;52.870;8.798;2024-02-16T08:01:13;11.90;99.90
24384;DHT22;12504;52.870;8.798;2024-02-16T08:03:42;11.90;99.90
24384;DHT22;12504;52.870;8.798;2024-02-16T08:06:08;12.00;99.90
24384;DHT22;12504;52.870;8.798;2024-02-16T08:08:33;12.00;99.90
24384;DHT22;12504;52.870;8.798;2024-02-16T08:10:59;12.00;99.90
24384;DHT22;12504;52.870;8.798;2024-02-16T08:13:24;11.80;99.90
24384;DHT22;12504;52.870;8.798;2024-02-16T08:15:50;11.70;99.90
24384;DHT22;12504;52.870;8.798;2024-02-16T08:18:17;11.80;99.90
24384;DHT22;12504;52.870;8.798;2024-02-16T08:20:43;12.00;99.90
24384;DHT22;12504;52.870;8.798;2024-02-16T08:23:09;12.20;99.90
24384;DHT22;12504;52.870;8.798;2024-02-16T08:25:34;12.30;99.90
24384;DHT22;12504;52.870;8.798;2024-02-16T08:28:00;12.40;99.90
24384;DHT22;12504;52.870;8.798;2024-02-16T08:30:27;12.50;99.90
24384;DHT22;12504;52.870;8.798;2024-02-16T08:32:53;12.60;99.90
24384;DHT22;12504;52.870;8.798;2024-02-16T08:35:19;12.60;99.90
24384;DHT22;12504;52.870;8.798;2024-02-16T08:37:45;12.60;99.90
24384;DHT22;12504;52.870;8.798;2024-02-16T08:40:12;12.60;99.90
24384;DHT22;12504;52.870;8.798;2024-02-16T08:42:43;12.60;99.90
24384;DHT22;12504;52.870;8.798;2024-02-16T08:45:09;12.70;99.90
24384;DHT22;12504;52.870;8.798;2024-02-16T08:47:35;12.80;99.90
24384;DHT22;12504;52.870;8.798;2024-02-16T08:50:01;12.80;99.90
24384;DHT22;12504;52.870;8.798;2024-02-16T08:52:26;12.80;99.90
24384;DHT22;12504;52.870;8.798;2024-02-16T08:54:52;12.80;99.90
24384;DHT22;12504;52.870;8.798;2024-02-16T08:57:18;12.80;99.90
24384;DHT22;12504;52.870;8.798;2024-02-16T08:59:43;12.90;99.90
24384;DHT22;12504;52.870;8.798;2024-02-16T09:02:10;12.90;99.90
24384;DHT22;12504;52.870;8.798;2024-02-16T09:04:35;13.00;99.90
24384;DHT22;12504;52.870;8.798;2024-02-16T09:07:02;12.90;99.90
24384;DHT22;12504;52.870;8.798;2024-02-16T09:09:28;13.00;99.90
24384;DHT22;12504;52.870;8.798;2024-02-16T09:11:54;13.00;99.90
24384;DHT22;12504;52.870;8.798;2024-02-16T09:14:19;13.00;99.90
24384;DHT22;12504;52.870;8.798;2024-02-16T09:16:48;13.00;99.90
24384;DHT22;12504;52.870;8.798;2024-02-16T09:19:13;13.10;99.90
24384;DHT22;12504;52.870;8.798;2024-02-16T09:21:39;13.30;99.90
24384;DHT22;12504;52.870;8.798;2024-02-16T09:24:05;13.30;99.90
24384;DHT22;12504;52.870;8.798;2024-02-16T09:26:39;13.30;99.90
24384;DHT22;12504;52.870;8.798;2024-02-16T09:29:04;13.30;99.90
24384;DHT22;12504;52.870;8.798;2024-02-16T09:31:30;13.30;99.90
24384;DHT22;12504;52.870;8.798;2024-02-16T09:33:55;13.40;99.90
24384;DHT22;12504;52.870;8.798;2024-02-16T09:36:21;13.30;99.90
24384;DHT22;12504;52.870;8.798;2024-02-16T09:38:48;13.30;99.90
24384;DHT22;12504;52.870;8.798;2024-02-16T09:41:14;13.30;99.90
24384;DHT22;12504;52.870;8.798;2024-02-16T09:43:41;13.20;99.90
24384;DHT22;12504;52.870;8.798;2024-02-16T09:46:08;13.40;99.90
24384;DHT22;12504;52.870;8.798;2024-02-16T09:48:34;13.50;99.90
24384;DHT22;12504;52.870;8.798;2024-02-16T09:51:00;13.50;99.90
24384;DHT22;12504;52.870;8.798;2024-02-16T09:53:28;13.60;99.90
24384;DHT22;12504;52.870;8.798;2024-02-16T09:55:54;13.70;99.90
24384;DHT22;12504;52.870;8.798;2024-02-16T09:58:20;13.80;99.90
24384;DHT22;12504;52.870;8.798;2024-02-16T10:00:53;13.90;99.90
24384;DHT22;12504;52.870;8.798;2024-02-16T10:03:27;14.10;99.90
24384;DHT22;12504;52.870;8.798;2024-02-16T10:06:07;14.20;99.90
24384;DHT22;12504;52.870;8.798;2024-02-16T10:08:34;14.20;99.90
24384;DHT22;12504;52.870;8.798;2024-02-16T10:11:04;14.20;99.90
24384;DHT22;12504;52.870;8.798;2024-02-16T10:13:31;14.30;99.90
24384;DHT22;12504;52.870;8.798;2024-02-16T10:16:07;14.40;99.90
24384;DHT22;12504;52.870;8.798;2024-02-16T10:18:37;14.40;99.90
24384;DHT22;12504;52.870;8.798;2024-02-16T10:21:04;14.40;99.90
24384;DHT22;12504;52.870;8.798;2024-02-16T10:23:30;14.30;99.90
24384;DHT22;12504;52.870;8.798;2024-02-16T10:25:55;14.30;99.90
24384;DHT22;12504;52.870;8.798;2024-02-16T10:28:21;14.30;99.90
24384;DHT22;12504;52.870;8.798;2024-02-16T10:30:58;14.40;99.90
24384;DHT22;12504;52.870;8.798;2024-02-16T10:33:25;14.50;99.90
24384;DHT22;12504;52.870;8.798;2024-02-16T10:35:51;14.50;99.90
24384;DHT22;12504;52.870;8.798;2024-02-16T10:38:19;14.60;99.90
24384;DHT22;12504;52.870;8.798;2024-02-16T10:40:47;14.70;99.90
24384;DHT22;12504;52.870;8.798;2024-02-16T10:43:14;14.80;99.90
24384;DHT22;12504;52.870;8.798;2024-02-16T10:45:41;14.90;99.90
24384;DHT22;12504;52.870;8.798;2024-02-16T10:48:07;14.90;99.90
24384;DHT22;12504;52.870;8.798;2024-02-16T10:50:35;15.00;99.90
24384;DHT22;12504;52.870;8.798;2024-02-16T10:53:21;15.00;99.90
24384;DHT22;12504;52.870;8.798;2024-02-16T10:55:49;15.10;99.90
24384;DHT22;12504;52.870;8.798;2024-02-16T10:58:16;15.20;99.90
24384;DHT22;12504;52.870;8.798;2024-02-16T11:00:53;15.20;99.90
24384;DHT22;12504;52.870;8.798;2024-02-16T11:03:22;15.20;99.90
24384;DHT22;12504;52.870;8.798;2024-02-16T11:05:49;15.30;99.90
24384;DHT22;12504;52.870;8.798;2024-02-16T11:08:18;15.40;99.90
24384;DHT22;12504;52.870;8.798;2024-02-16T11:11:00;15.40;99.90
24384;DHT22;12504;52.870;8.798;2024-02-16T11:13:27;15.40;99.90
24384;DHT22;12504;52.870;8.798;2024-02-16T11:16:06;15.40;99.90
24384;DHT22;12504;52.870;8.798;2024-02-16T11:18:36;15.30;99.90
24384;DHT22;12504;52.870;8.798;2024-02-16T11:21:03;15.20;99.90
24384;DHT22;12504;52.870;8.798;2024-02-16T11:23:30;15.10;99.90
24384;DHT22;12504;52.870;8.798;2024-02-16T11:26:08;15.10;99.90
24384;DHT22;12504;52.870;8.798;2024-02-16T11:28:37;15.10;99.90
24384;DHT22;12504;52.870;8.798;2024-02-16T11:31:04;15.00;99.90
24384;DHT22;12504;52.870;8.798;2024-02-16T11:33:30;14.90;99.90
24384;DHT22;12504;52.870;8.798;2024-02-16T11:36:01;14.80;99.90
24384;DHT22;12504;52.870;8.798;2024-02-16T11:38:32;14.90;99.90
24384;DHT22;12504;52.870;8.798;2024-02-16T11:41:06;14.90;99.90
24384;DHT22;12504;52.870;8.798;2024-02-16T11:43:33;14.90;99.90
24384;DHT22;12504;52.870;8.798;2024-02-16T11:46:10;14.80;99.90
24384;DHT22;12504;52.870;8.798;2024-02-16T11:48:35;14.80;99.90
24384;DHT22;12504;52.870;8.798;2024-02-16T11:51:03;14.80;99.90
24384;DHT22;12504;52.870;8.798;2024-02-16T11:53:29;14.70;99.90
24384;DHT22;12504;52.870;8.798;2024-02-16T11:55:55;14.50;99.90
24384;DHT22;12504;52.870;8.798;2024-02-16T11:58:21;14.50;99.90
24384;DHT22;12504;52.870;8.798;2024-02-16T12:00:48;14.60;99.90
24384;DHT22;12504;52.870;8.798;2024-02-16T12:03:20;14.60;99.90
24384;DHT22;12504;52.870;8.798;2024-02-16T12:05:52;14.60;99.90
24384;DHT22;12504;52.870;8.798;2024-02-16T12:08:19;14.60;99.90
24384;DHT22;12504;52.870;8.798;2024-02-16T12:10:46;14.40;99.90
24384;DHT22;12504;52.870;8.798;2024-02-16T12:13:12;14.40;99.90
24384;DHT22;12504;52.870;8.798;2024-02-16T12:15:38;14.30;99.90
24384;DHT22;12504;52.870;8.798;2024-02-16T12:18:04;14.30;99.90
24384;DHT22;12504;52.870;8.798;2024-02-16T12:20:30;14.20;99.90
24384;DHT22;12504;52.870;8.798;2024-02-16T12:22:59;14.30;99.90
24384;DHT22;12504;52.870;8.798;2024-02-16T12:25:27;14.30;99.90
24384;DHT22;12504;52.870;8.798;2024-02-16T12:27:53;14.30;99.90
24384;DHT22;12504;52.870;8.798;2024-02-16T12:30:18;14.40;99.90
24384;DHT22;12504;52.870;8.798;2024-02-16T12:32:44;14.30;99.90
24384;DHT22;12504;52.870;8.798;2024-02-16T12:35:10;14.40;99.90
24384;DHT22;12504;52.870;8.798;2024-02-16T12:37:35;14.50;99.90
24384;DHT22;12504;52.870;8.798;2024-02-16T12:40:03;14.60;99.90
24384;DHT22;12504;52.870;8.798;2024-02-16T12:42:28;14.50;99.90
24384;DHT22;12504;52.870;8.798;2024-02-16T12:44:54;14.60;99.90
24384;DHT22;12504;52.870;8.798;2024-02-16T12:47:20;14.60;99.90
24384;DHT22;12504;52.870;8.798;2024-02-16T12:49:46;14.70;99.90
24384;DHT22;12504;52.870;8.798;2024-02-16T12:52:19;14.70;99.90
24384;DHT22;12504;52.870;8.798;2024-02-16T12:54:45;14.80;99.90
24384;DHT22;12504;52.870;8.798;2024-02-16T12:57:12;14.80;99.90
24384;DHT22;12504;52.870;8.798;2024-02-16T12:59:38;14.60;99.90
24384;DHT22;12504;52.870;8.798;2024-02-16T13:02:04;14.50;99.90
24384;DHT22;12504;52.870;8.798;2024-02-16T13:04:30;14.50;99.90
24384;DHT22;12504;52.870;8.798;2024-02-16T13:06:57;14.50;99.90
24384;DHT22;12504;52.870;8.798;2024-02-16T13:09:23;14.40;99.90
24384;DHT22;12504;52.870;8.798;2024-02-16T13:11:49;14.30;99.90
24384;DHT22;12504;52.870;8.798;2024-02-16T13:14:20;14.20;99.90
24384;DHT22;12504;52.870;8.798;2024-02-16T13:16:45;14.30;99.90
24384;DHT22;12504;52.870;8.798;2024-02-16T13:19:13;14.30;99.90
24384;DHT22;12504;52.870;8.798;2024-02-16T13:21:39;14.30;99.90
24384;DHT22;12504;52.870;8.798;2024-02-16T13:24:05;14.40;99.90
24384;DHT22;12504;52.870;8.798;2024-02-16T13:26:31;14.50;99.90
24384;DHT22;12504;52.870;8.798;2024-02-16T13:28:57;14.50;99.90
24384;DHT22;12504;52.870;8.798;2024-02-16T13:31:23;14.30;99.90
24384;DHT22;12504;52.870;8.798;2024-02-16T13:33:50;14.40;99.90
24384;DHT22;12504;52.870;8.798;2024-02-16T13:36:16;14.40;99.90
24384;DHT22;12504;52.870;8.798;2024-02-16T13:38:42;14.40;99.90
24384;DHT22;12504;52.870;8.798;2024-02-16T13:41:07;14.30;99.90
24384;DHT22;12504;52.870;8.798;2024-02-16T13:43:33;14.20;99.90
24384;DHT22;12504;52.870;8.798;2024-02-16T13:45:58;14.20;99.90
24384;DHT22;12504;52.870;8.798;2024-02-16T13:48:25;14.20;99.90
24384;DHT22;12504;52.870;8.798;2024-02-16T13:50:51;14.20;99.90
24384;DHT22;12504;52.870;8.798;2024-02-16T13:53:17;14.10;99.90
24384;DHT22;12504;52.870;8.798;2024-02-16T13:55:43;13.80;99.90
24384;DHT22;12504;52.870;8.798;2024-02-16T13:58:10;13.50;99.90
24384;DHT22;12504;52.870;8.798;2024-02-16T14:00:36;13.30;99.90
24384;DHT22;12504;52.870;8.798;2024-02-16T14:03:04;13.10;99.90
24384;DHT22;12504;52.870;8.798;2024-02-16T14:05:31;13.00;99.90
24384;DHT22;12504;52.870;8.798;2024-02-16T14:07:57;12.90;99.90
24384;DHT22;12504;52.870;8.798;2024-02-16T14:10:23;12.90;99.90
24384;DHT22;12504;52.870;8.798;2024-02-16T14:12:48;12.80;99.90
24384;DHT22;12504;52.870;8.798;2024-02-16T14:15:14;12.80;99.90
24384;DHT22;12504;52.870;8.798;2024-02-16T14:17:41;12.80;99.90
24384;DHT22;12504;52.870;8.798;2024-02-16T14:20:08;12.80;99.90
24384;DHT22;12504;52.870;8.798;2024-02-16T14:22:34;12.80;99.90
24384;DHT22;12504;52.870;8.798;2024-02-16T14:24:59;12.80;99.90
24384;DHT22;12504;52.870;8.798;2024-02-16T14:27:25;12.70;99.90
24384;DHT22;12504;52.870;8.798;2024-02-16T14:29:51;12.70;99.90
24384;DHT22;12504;52.870;8.798;2024-02-16T14:32:17;12.60;99.90
24384;DHT22;12504;52.870;8.798;2024-02-16T14:34:42;12.60;99.90
24384;DHT22;12504;52.870;8.798;2024-02-16T14:37:09;12.60;99.90
24384;DHT22;12504;52.870;8.798;2024-02-16T14:39:35;12.50;99.90
24384;DHT22;12504;52.870;8.798;2024-02-16T14:42:01;12.60;99.90
24384;DHT22;12504;52.870;8.798;2024-02-16T14:44:26;12.50;99.90
24384;DHT22;12504;52.870;8.798;2024-02-16T14:46:52;12.50;99.90
24384;DHT22;12504;52.870;8.798;2024-02-16T14:49:18;12.60;99.90
24384;DHT22;12504;52.870;8.798;2024-02-16T14:51:50;12.50;99.90
24384;DHT22;12504;52.870;8.798;2024-02-16T14:54:16;12.50;99.90
24384;DHT22;12504;52.870;8.798;2024-02-16T14:56:41;12.50;99.90
24384;DHT22;12504;52.870;8.798;2024-02-16T14:59:07;12.50;99.90
24384;DHT22;12504;52.870;8.798;2024-02-16T15:01:33;12.50;99.90
24384;DHT22;12504;52.870;8.798;2024-02-16T15:03:59;12.50;99.90
24384;DHT22;12504;52.870;8.798;2024-02-16T15:06:25;12.50;99.90
24384;DHT22;12504;52.870;8.798;2024-02-16T15:08:50;12.40;99.90
24384;DHT22;12504;52.870;8.798;2024-02-16T15:11:16;12.40;99.90
24384;DHT22;12504;52.870;8.798;2024-02-16T15:13:42;12.50;99.90
24384;DHT22;12504;52.870;8.798;2024-02-16T15:16:08;12.50;99.90
24384;DHT22;12504;52.870;8.798;2024-02-16T15:18:35;12.50;99.90
24384;DHT22;12504;52.870;8.798;2024-02-16T15:21:00;12.50;99.90
24384;DHT22;12504;52.870;8.798;2024-02-16T15:23:26;12.50;99.90
24384;DHT22;12504;52.870;8.798;2024-02-16T15:25:52;12.50;99.90
24384;DHT22;12504;52.870;8.798;2024-02-16T15:28:18;12.50;99.90
24384;DHT22;12504;52.870;8.798;2024-02-16T15:30:44;12.50;99.90